Ana Sayfa
METAR-TAF:

METAR-TAF

Havaalanları :

Presque_Isle_County_Airport

Rogers City, Michigan, Amerika Birleşik Devletleri

Enlem: 45-24-25N, Boylam: 083-48-46W, yükseklik: 204 m

Güncel hava durumu gözlemi

Rapor saat 13:15 UTC de 23 dakika önce yapıldı.
Rüzgar batı/güneybatıdan 8 kt
Sıcaklık -1°C
Nem 74%
Basınç 1018 hPa
Görüş mesafesi: 16.1 km
Açık gökyüzü

METAR: KPZQ 221315Z AUTO 24008KT 10SM CLR M01/M05 A3005 RMK AO2 T10151054

Saat: 08:38 (13:38 UTC)


TAF: eksik

4.000'den fazla havaalanı için hava durumu gözlemleri ve tahminleri (METAR ve TAF raporları).

Kullanılabilir istasyonlar harita üzerinde sarı ve kırmızı noktalarla gösterilir.

İstasyonun adını görmek için fareyi noktanın üzerinde gezdirin.

Sonrasında hava gözlem ve tahminlerini görmek için tıklayın.

Haritayı değiştirmek için: yaklaştırmak için siyah artı işaretli yeşil düğmeye ve uzaklaştırmak için de eksi işaretli düğmeye hızla tıklayın; bitişik haritalar için yeşil okları kullanın.


METAR-TAF: